TP1366 LPPT-EGLL
Flight info
| Callsign | TP1366 |
|---|---|
| Flight time | 2h 9m |
| Altitude | 36000 |
| Route | IXIDA DCT RIVRO DCT TOSDI DCT ZMR DCT NUBLO DCT RONSI DCT DELOG DCT DEGEX DCT OZNOH DCT JSY DCT REVTU/N0440F340 UP87 ROXOG |
| Aircraft | A320/M-SDE3FGHIRWY/LB1 |
Departure
| Time | 2026-05-07 17:47 |
|---|---|
| Airport | Lisbon Humberto Delgado Airport (LPPT) |
Arrival
| Time | 2026-05-07 19:56 |
|---|---|
| Airport | London Heathrow Airport (EGLL) |
| Time | Latitude | Longitude | Altitude | Speed | Heading |
|---|---|---|---|---|---|
| 2026-05-07 17:04 | 38.77253 | -9.13164 | 350 ft | 0 kts | 75° |
| 2026-05-07 17:31 | 38.77250 | -9.13177 | 357 ft | 2 kts | 69° |
| 2026-05-07 17:31 | 38.77244 | -9.13196 | 354 ft | 2 kts | 65° |
| 2026-05-07 17:31 | 38.77236 | -9.13215 | 351 ft | 2 kts | 49° |
| 2026-05-07 17:32 | 38.77224 | -9.13228 | 355 ft | 2 kts | 10° |
| 2026-05-07 17:32 | 38.77210 | -9.13229 | 351 ft | 1 kts | 349° |
| 2026-05-07 17:32 | 38.77209 | -9.13229 | 351 ft | 0 kts | 348° |
| 2026-05-07 17:36 | 38.77211 | -9.13229 | 351 ft | 2 kts | 348° |
| 2026-05-07 17:36 | 38.77269 | -9.13244 | 347 ft | 12 kts | 348° |
| 2026-05-07 17:36 | 38.77330 | -9.13295 | 356 ft | 11 kts | 278° |
| 2026-05-07 17:36 | 38.77321 | -9.13364 | 352 ft | 8 kts | 258° |
| 2026-05-07 17:37 | 38.77307 | -9.13444 | 349 ft | 10 kts | 256° |
| 2026-05-07 17:37 | 38.77261 | -9.13494 | 354 ft | 7 kts | 180° |
| 2026-05-07 17:37 | 38.77243 | -9.13489 | 347 ft | 0 kts | 167° |
| 2026-05-07 17:38 | 38.77232 | -9.13496 | 347 ft | 6 kts | 214° |
| 2026-05-07 17:38 | 38.77209 | -9.13593 | 347 ft | 14 kts | 258° |
| 2026-05-07 17:38 | 38.77189 | -9.13721 | 348 ft | 15 kts | 258° |
| 2026-05-07 17:38 | 38.77163 | -9.13862 | 346 ft | 17 kts | 245° |
| 2026-05-07 17:39 | 38.77061 | -9.13937 | 351 ft | 18 kts | 198° |
| 2026-05-07 17:39 | 38.76944 | -9.14001 | 351 ft | 19 kts | 208° |
| 2026-05-07 17:39 | 38.76828 | -9.14061 | 350 ft | 18 kts | 201° |
| 2026-05-07 17:39 | 38.76724 | -9.14115 | 353 ft | 14 kts | 202° |
| 2026-05-07 17:40 | 38.76639 | -9.14160 | 351 ft | 12 kts | 202° |
| 2026-05-07 17:40 | 38.76594 | -9.14236 | 348 ft | 10 kts | 274° |
| 2026-05-07 17:40 | 38.76602 | -9.14264 | 348 ft | 0 kts | 296° |
| 2026-05-07 17:45 | 38.76614 | -9.14297 | 337 ft | 13 kts | 296° |
| 2026-05-07 17:45 | 38.76689 | -9.14368 | 339 ft | 14 kts | 18° |
| 2026-05-07 17:45 | 38.76701 | -9.14361 | 339 ft | 0 kts | 24° |
| 2026-05-07 17:46 | 38.76819 | -9.14298 | 337 ft | 53 kts | 22° |
| 2026-05-07 17:46 | 38.77368 | -9.14003 | 347 ft | 115 kts | 23° |
| 2026-05-07 17:46 | 38.78270 | -9.13518 | 349 ft | 163 kts | 22° |
| 2026-05-07 17:47 | 38.79383 | -9.12897 | 721 ft | 182 kts | 22° |
| 2026-05-07 17:47 | 38.80547 | -9.12248 | 1444 ft | 183 kts | 18° |
| 2026-05-07 17:47 | 38.81737 | -9.11561 | 1969 ft | 197 kts | 27° |
| 2026-05-07 17:47 | 38.82989 | -9.10621 | 2257 ft | 221 kts | 27° |
| 2026-05-07 17:48 | 38.84386 | -9.09555 | 2700 ft | 245 kts | 28° |
| 2026-05-07 17:48 | 38.85908 | -9.08385 | 3252 ft | 261 kts | 27° |
| 2026-05-07 17:48 | 38.87493 | -9.07159 | 3994 ft | 271 kts | 30° |
| 2026-05-07 17:48 | 38.89121 | -9.05894 | 4802 ft | 278 kts | 31° |
| 2026-05-07 17:49 | 38.90665 | -9.04341 | 5567 ft | 285 kts | 43° |
| 2026-05-07 17:49 | 38.92146 | -9.02640 | 6468 ft | 288 kts | 45° |
| 2026-05-07 17:49 | 38.93634 | -9.00882 | 7276 ft | 293 kts | 45° |
| 2026-05-07 17:49 | 38.95139 | -8.99092 | 8125 ft | 296 kts | 45° |
| 2026-05-07 17:50 | 38.96662 | -8.97288 | 8980 ft | 299 kts | 44° |
| 2026-05-07 17:50 | 38.98209 | -8.95467 | 9778 ft | 304 kts | 44° |
| 2026-05-07 17:50 | 38.99794 | -8.93608 | 10297 ft | 319 kts | 44° |
| 2026-05-07 17:50 | 39.01493 | -8.91620 | 10517 ft | 342 kts | 44° |
| 2026-05-07 17:51 | 39.03308 | -8.89496 | 10810 ft | 361 kts | 44° |
| 2026-05-07 17:51 | 39.05188 | -8.87295 | 11429 ft | 367 kts | 44° |
| 2026-05-07 17:51 | 39.07062 | -8.85100 | 12086 ft | 372 kts | 43° |
| 2026-05-07 17:51 | 39.08988 | -8.82849 | 12798 ft | 376 kts | 44° |
| 2026-05-07 17:52 | 39.10935 | -8.80572 | 13502 ft | 379 kts | 44° |
| 2026-05-07 17:52 | 39.12892 | -8.78277 | 14146 ft | 383 kts | 44° |
| 2026-05-07 17:52 | 39.14875 | -8.75948 | 14766 ft | 386 kts | 44° |
| 2026-05-07 17:52 | 39.16849 | -8.73575 | 15367 ft | 389 kts | 47° |
| 2026-05-07 17:53 | 39.18657 | -8.70966 | 15926 ft | 393 kts | 50° |
| 2026-05-07 17:53 | 39.19856 | -8.69207 | 16277 ft | 396 kts | 49° |
| 2026-05-07 17:53 | 39.21686 | -8.66522 | 16820 ft | 401 kts | 50° |
| 2026-05-07 17:53 | 39.23540 | -8.63799 | 17402 ft | 404 kts | 49° |
| 2026-05-07 17:54 | 39.25406 | -8.61062 | 17958 ft | 409 kts | 49° |
| 2026-05-07 17:54 | 39.27289 | -8.58303 | 18487 ft | 411 kts | 49° |
| 2026-05-07 17:54 | 39.29194 | -8.55514 | 18941 ft | 416 kts | 49° |
| 2026-05-07 17:54 | 39.31113 | -8.52698 | 19416 ft | 419 kts | 49° |
| 2026-05-07 17:55 | 39.33044 | -8.49858 | 19876 ft | 423 kts | 49° |
| 2026-05-07 17:55 | 39.34987 | -8.46994 | 20338 ft | 426 kts | 49° |
| 2026-05-07 17:55 | 39.36948 | -8.44102 | 20780 ft | 430 kts | 49° |
| 2026-05-07 17:55 | 39.38931 | -8.41177 | 21211 ft | 434 kts | 49° |
| 2026-05-07 17:56 | 39.40928 | -8.38227 | 21626 ft | 438 kts | 49° |
| 2026-05-07 17:56 | 39.42947 | -8.35244 | 22046 ft | 442 kts | 49° |
| 2026-05-07 17:56 | 39.44981 | -8.32245 | 22439 ft | 446 kts | 47° |
| 2026-05-07 17:56 | 39.47107 | -8.29292 | 22835 ft | 450 kts | 45° |
| 2026-05-07 17:57 | 39.49296 | -8.26449 | 23231 ft | 454 kts | 44° |
| 2026-05-07 17:57 | 39.51586 | -8.23592 | 23608 ft | 458 kts | 43° |
| 2026-05-07 17:57 | 39.53899 | -8.20748 | 24028 ft | 458 kts | 43° |
| 2026-05-07 17:57 | 39.56209 | -8.17889 | 24401 ft | 460 kts | 43° |
| 2026-05-07 17:58 | 39.58514 | -8.14993 | 24763 ft | 462 kts | 43° |
| 2026-05-07 17:58 | 39.60812 | -8.12059 | 25111 ft | 465 kts | 43° |
| 2026-05-07 17:58 | 39.63113 | -8.09091 | 25451 ft | 467 kts | 44° |
| 2026-05-07 17:58 | 39.65416 | -8.06109 | 25790 ft | 469 kts | 43° |
| 2026-05-07 17:59 | 39.67733 | -8.03106 | 26116 ft | 472 kts | 43° |
| 2026-05-07 17:59 | 39.70063 | -8.00091 | 26449 ft | 474 kts | 43° |
| 2026-05-07 17:59 | 39.72384 | -7.97092 | 26778 ft | 477 kts | 43° |
| 2026-05-07 17:59 | 39.74744 | -7.94045 | 27103 ft | 479 kts | 43° |
| 2026-05-07 18:00 | 39.77114 | -7.90985 | 27462 ft | 480 kts | 43° |
| 2026-05-07 18:00 | 39.79485 | -7.87926 | 27814 ft | 481 kts | 43° |
| 2026-05-07 18:00 | 39.81860 | -7.84851 | 28132 ft | 483 kts | 43° |
| 2026-05-07 18:00 | 39.84246 | -7.81758 | 28404 ft | 485 kts | 43° |
| 2026-05-07 18:01 | 39.86649 | -7.78644 | 28683 ft | 487 kts | 43° |
| 2026-05-07 18:01 | 39.89054 | -7.75521 | 28936 ft | 490 kts | 43° |
| 2026-05-07 18:01 | 39.91471 | -7.72372 | 29188 ft | 492 kts | 43° |
| 2026-05-07 18:01 | 39.93897 | -7.69205 | 29464 ft | 494 kts | 43° |
| 2026-05-07 18:02 | 39.98747 | -7.62864 | 30080 ft | 496 kts | 43° |
| 2026-05-07 18:02 | 40.01185 | -7.59673 | 30421 ft | 496 kts | 42° |
| 2026-05-07 18:02 | 40.03614 | -7.56495 | 30763 ft | 494 kts | 42° |
| 2026-05-07 18:03 | 40.06042 | -7.53318 | 31104 ft | 494 kts | 41° |
| 2026-05-07 18:03 | 40.08465 | -7.50144 | 31425 ft | 493 kts | 41° |
| 2026-05-07 18:03 | 40.10886 | -7.46969 | 31735 ft | 493 kts | 41° |
| 2026-05-07 18:03 | 40.13305 | -7.43794 | 32049 ft | 493 kts | 41° |
| 2026-05-07 18:04 | 40.15724 | -7.40614 | 32361 ft | 492 kts | 41° |
| 2026-05-07 18:04 | 40.18135 | -7.37439 | 32677 ft | 492 kts | 41° |
| 2026-05-07 18:04 | 40.20514 | -7.34302 | 32988 ft | 491 kts | 41° |
| 2026-05-07 18:04 | 40.22922 | -7.31128 | 33296 ft | 491 kts | 41° |
| 2026-05-07 18:05 | 40.25333 | -7.27950 | 33633 ft | 491 kts | 41° |
| 2026-05-07 18:05 | 40.27735 | -7.24780 | 33969 ft | 489 kts | 41° |
| 2026-05-07 18:05 | 40.30133 | -7.21612 | 34262 ft | 489 kts | 40° |
| 2026-05-07 18:05 | 40.32522 | -7.18454 | 34561 ft | 487 kts | 40° |
| 2026-05-07 18:06 | 40.34902 | -7.15297 | 34833 ft | 487 kts | 40° |
| 2026-05-07 18:06 | 40.37283 | -7.12131 | 35064 ft | 487 kts | 40° |
| 2026-05-07 18:06 | 40.39660 | -7.08965 | 35310 ft | 487 kts | 40° |
| 2026-05-07 18:06 | 40.42033 | -7.05800 | 35553 ft | 487 kts | 41° |
| 2026-05-07 18:07 | 40.44407 | -7.02631 | 35773 ft | 487 kts | 40° |
| 2026-05-07 18:07 | 40.49167 | -6.96279 | 35869 ft | 488 kts | 40° |
| 2026-05-07 18:08 | 40.53934 | -6.89918 | 35868 ft | 488 kts | 40° |
| 2026-05-07 18:08 | 40.58697 | -6.83549 | 35875 ft | 488 kts | 40° |
| 2026-05-07 18:09 | 40.63412 | -6.77221 | 35868 ft | 487 kts | 40° |
| 2026-05-07 18:09 | 40.68148 | -6.70848 | 35868 ft | 487 kts | 40° |
| 2026-05-07 18:10 | 40.72886 | -6.64468 | 35883 ft | 487 kts | 40° |
| 2026-05-07 18:10 | 40.77611 | -6.58068 | 35884 ft | 486 kts | 41° |
| 2026-05-07 18:11 | 40.82325 | -6.51672 | 35887 ft | 486 kts | 40° |
| 2026-05-07 18:11 | 40.87040 | -6.45284 | 35892 ft | 485 kts | 40° |
| 2026-05-07 18:12 | 40.91756 | -6.38881 | 35894 ft | 485 kts | 40° |
| 2026-05-07 18:12 | 40.96449 | -6.32475 | 35915 ft | 484 kts | 40° |
| 2026-05-07 18:13 | 41.01173 | -6.26141 | 35898 ft | 482 kts | 38° |
| 2026-05-07 18:13 | 41.06127 | -6.20209 | 35894 ft | 479 kts | 35° |
| 2026-05-07 18:14 | 41.11136 | -6.14460 | 35891 ft | 479 kts | 35° |
| 2026-05-07 18:14 | 41.16125 | -6.08591 | 35896 ft | 480 kts | 36° |
| 2026-05-07 18:15 | 41.21065 | -6.02638 | 35919 ft | 480 kts | 36° |
| 2026-05-07 18:15 | 41.25994 | -5.96675 | 35908 ft | 479 kts | 36° |
| 2026-05-07 18:16 | 41.30930 | -5.90719 | 35897 ft | 479 kts | 36° |
| 2026-05-07 18:16 | 41.35869 | -5.84772 | 35894 ft | 479 kts | 36° |
| 2026-05-07 18:17 | 41.40806 | -5.78823 | 35889 ft | 478 kts | 36° |
| 2026-05-07 18:17 | 41.45702 | -5.72894 | 35898 ft | 479 kts | 36° |
| 2026-05-07 18:18 | 41.50631 | -5.66909 | 35911 ft | 477 kts | 33° |
| 2026-05-07 18:18 | 41.56096 | -5.62241 | 35907 ft | 459 kts | 16° |
| 2026-05-07 18:19 | 41.61965 | -5.58955 | 35896 ft | 457 kts | 15° |
| 2026-05-07 18:19 | 41.67833 | -5.55649 | 35915 ft | 457 kts | 15° |
| 2026-05-07 18:20 | 41.73685 | -5.52324 | 35912 ft | 457 kts | 15° |
| 2026-05-07 18:20 | 41.79495 | -5.49022 | 35906 ft | 456 kts | 15° |
| 2026-05-07 18:21 | 41.85337 | -5.45708 | 35903 ft | 456 kts | 15° |
| 2026-05-07 18:21 | 41.91168 | -5.42399 | 35914 ft | 455 kts | 16° |
| 2026-05-07 18:22 | 41.96991 | -5.39078 | 35911 ft | 454 kts | 16° |
| 2026-05-07 18:22 | 42.02816 | -5.35756 | 35906 ft | 454 kts | 16° |
| 2026-05-07 18:23 | 42.08636 | -5.32434 | 35945 ft | 454 kts | 17° |
| 2026-05-07 18:23 | 42.14455 | -5.29098 | 35932 ft | 454 kts | 17° |
| 2026-05-07 18:24 | 42.20266 | -5.25760 | 35917 ft | 453 kts | 17° |
| 2026-05-07 18:24 | 42.26032 | -5.22440 | 35911 ft | 453 kts | 17° |
| 2026-05-07 18:25 | 42.31830 | -5.19107 | 35916 ft | 453 kts | 17° |
| 2026-05-07 18:25 | 42.37633 | -5.15753 | 35910 ft | 453 kts | 17° |
| 2026-05-07 18:26 | 42.43427 | -5.12385 | 35903 ft | 453 kts | 17° |
| 2026-05-07 18:26 | 42.49223 | -5.09022 | 35900 ft | 453 kts | 17° |
| 2026-05-07 18:27 | 42.54982 | -5.05680 | 35912 ft | 453 kts | 18° |
| 2026-05-07 18:27 | 42.60774 | -5.02308 | 35923 ft | 453 kts | 18° |
| 2026-05-07 18:28 | 42.66571 | -4.98918 | 35913 ft | 453 kts | 18° |
| 2026-05-07 18:28 | 42.72364 | -4.95529 | 35910 ft | 453 kts | 18° |
| 2026-05-07 18:29 | 42.78165 | -4.92128 | 35915 ft | 454 kts | 18° |
| 2026-05-07 18:29 | 42.83966 | -4.88724 | 35912 ft | 454 kts | 18° |
| 2026-05-07 18:30 | 42.89761 | -4.85311 | 35922 ft | 454 kts | 18° |
| 2026-05-07 18:30 | 42.95523 | -4.81918 | 35926 ft | 454 kts | 19° |
| 2026-05-07 18:31 | 43.01324 | -4.78490 | 35919 ft | 454 kts | 19° |
| 2026-05-07 18:31 | 43.07122 | -4.75049 | 35915 ft | 454 kts | 19° |
| 2026-05-07 18:32 | 43.12922 | -4.71607 | 35913 ft | 454 kts | 19° |
| 2026-05-07 18:32 | 43.18726 | -4.68157 | 35925 ft | 454 kts | 19° |
| 2026-05-07 18:33 | 43.24518 | -4.64706 | 35917 ft | 454 kts | 19° |
| 2026-05-07 18:33 | 43.30314 | -4.61240 | 35911 ft | 455 kts | 19° |
| 2026-05-07 18:34 | 43.36105 | -4.57772 | 35917 ft | 454 kts | 19° |
| 2026-05-07 18:34 | 43.41900 | -4.54303 | 35903 ft | 454 kts | 19° |
| 2026-05-07 18:35 | 43.47659 | -4.50844 | 35900 ft | 455 kts | 19° |
| 2026-05-07 18:35 | 43.53456 | -4.47351 | 35900 ft | 455 kts | 19° |
| 2026-05-07 18:36 | 43.59256 | -4.43846 | 35893 ft | 455 kts | 20° |
| 2026-05-07 18:36 | 43.65068 | -4.40339 | 35900 ft | 456 kts | 20° |
| 2026-05-07 18:37 | 43.70882 | -4.36823 | 35895 ft | 456 kts | 20° |
| 2026-05-07 18:37 | 43.76696 | -4.33281 | 35901 ft | 457 kts | 20° |
| 2026-05-07 18:38 | 43.82516 | -4.29734 | 35893 ft | 457 kts | 20° |
| 2026-05-07 18:38 | 43.88339 | -4.26180 | 35887 ft | 457 kts | 20° |
| 2026-05-07 18:39 | 43.94122 | -4.22652 | 35903 ft | 457 kts | 20° |
| 2026-05-07 18:39 | 43.99944 | -4.19079 | 35902 ft | 457 kts | 20° |
| 2026-05-07 18:40 | 44.05767 | -4.15500 | 35903 ft | 458 kts | 20° |
| 2026-05-07 18:40 | 44.11596 | -4.11920 | 35904 ft | 458 kts | 20° |
| 2026-05-07 18:41 | 44.17425 | -4.08328 | 35923 ft | 458 kts | 20° |
| 2026-05-07 18:41 | 44.23254 | -4.04732 | 35919 ft | 458 kts | 20° |
| 2026-05-07 18:42 | 44.29080 | -4.01124 | 35920 ft | 458 kts | 20° |
| 2026-05-07 18:42 | 44.35022 | -3.98271 | 35921 ft | 451 kts | 7° |
| 2026-05-07 18:43 | 44.41215 | -3.96865 | 35925 ft | 451 kts | 6° |
| 2026-05-07 18:43 | 44.47409 | -3.95441 | 35925 ft | 451 kts | 6° |
| 2026-05-07 18:44 | 44.53602 | -3.94010 | 35922 ft | 451 kts | 6° |
| 2026-05-07 18:44 | 44.59797 | -3.92573 | 35935 ft | 451 kts | 6° |
| 2026-05-07 18:45 | 44.65992 | -3.91137 | 35938 ft | 451 kts | 6° |
| 2026-05-07 18:45 | 44.72189 | -3.89708 | 35937 ft | 451 kts | 6° |
| 2026-05-07 18:46 | 44.78362 | -3.88275 | 35937 ft | 451 kts | 6° |
| 2026-05-07 18:46 | 44.84558 | -3.86838 | 35938 ft | 451 kts | 6° |
| 2026-05-07 18:47 | 44.89720 | -3.85641 | 35940 ft | 451 kts | 6° |
| 2026-05-07 18:47 | 44.95915 | -3.84188 | 35951 ft | 451 kts | 6° |
| 2026-05-07 18:48 | 45.02114 | -3.82729 | 35958 ft | 452 kts | 6° |
| 2026-05-07 18:48 | 45.08320 | -3.81275 | 35935 ft | 453 kts | 6° |
| 2026-05-07 18:49 | 45.14537 | -3.79812 | 35943 ft | 453 kts | 6° |
| 2026-05-07 18:49 | 45.20766 | -3.78358 | 35945 ft | 454 kts | 6° |
| 2026-05-07 18:50 | 45.26954 | -3.76896 | 35952 ft | 454 kts | 6° |
| 2026-05-07 18:50 | 45.33182 | -3.75413 | 35962 ft | 454 kts | 7° |
| 2026-05-07 18:51 | 45.39414 | -3.73943 | 35961 ft | 454 kts | 7° |
| 2026-05-07 18:51 | 45.45650 | -3.72460 | 35963 ft | 454 kts | 7° |
| 2026-05-07 18:52 | 45.51882 | -3.70969 | 35973 ft | 454 kts | 7° |
| 2026-05-07 18:52 | 45.58111 | -3.69487 | 35971 ft | 454 kts | 7° |
| 2026-05-07 18:53 | 45.64349 | -3.67992 | 35972 ft | 454 kts | 7° |
| 2026-05-07 18:53 | 45.70581 | -3.66498 | 35971 ft | 454 kts | 7° |
| 2026-05-07 18:54 | 45.76779 | -3.65017 | 35981 ft | 454 kts | 7° |
| 2026-05-07 18:54 | 45.83018 | -3.63518 | 35981 ft | 454 kts | 7° |
| 2026-05-07 18:55 | 45.89247 | -3.62001 | 35981 ft | 454 kts | 7° |
| 2026-05-07 18:55 | 45.95435 | -3.60504 | 35992 ft | 454 kts | 7° |
| 2026-05-07 18:56 | 46.01671 | -3.59001 | 35986 ft | 454 kts | 7° |
| 2026-05-07 18:56 | 46.07906 | -3.57486 | 35988 ft | 454 kts | 7° |
| 2026-05-07 18:57 | 46.14113 | -3.55970 | 35974 ft | 455 kts | 7° |
| 2026-05-07 18:57 | 46.20361 | -3.54447 | 35968 ft | 456 kts | 7° |
| 2026-05-07 18:58 | 46.26658 | -3.52900 | 35970 ft | 456 kts | 7° |
| 2026-05-07 18:58 | 46.32885 | -3.51369 | 35985 ft | 457 kts | 7° |
| 2026-05-07 18:59 | 46.39157 | -3.49829 | 35987 ft | 457 kts | 7° |
| 2026-05-07 18:59 | 46.45427 | -3.48280 | 35987 ft | 457 kts | 7° |
| 2026-05-07 19:00 | 46.51696 | -3.46722 | 35995 ft | 457 kts | 7° |
| 2026-05-07 19:00 | 46.57934 | -3.45190 | 35997 ft | 457 kts | 7° |
| 2026-05-07 19:01 | 46.64207 | -3.43639 | 35997 ft | 457 kts | 7° |
| 2026-05-07 19:01 | 46.70478 | -3.42075 | 35996 ft | 457 kts | 7° |
| 2026-05-07 19:02 | 46.76750 | -3.40509 | 35996 ft | 457 kts | 7° |
| 2026-05-07 19:02 | 46.83021 | -3.38941 | 35996 ft | 457 kts | 7° |
| 2026-05-07 19:03 | 46.89293 | -3.37370 | 35996 ft | 457 kts | 7° |
| 2026-05-07 19:03 | 46.95566 | -3.35801 | 36002 ft | 457 kts | 7° |
| 2026-05-07 19:04 | 47.01842 | -3.34211 | 36002 ft | 458 kts | 7° |
| 2026-05-07 19:04 | 47.08119 | -3.32623 | 36000 ft | 458 kts | 7° |
| 2026-05-07 19:05 | 47.14397 | -3.31037 | 36006 ft | 458 kts | 7° |
| 2026-05-07 19:05 | 47.20682 | -3.29440 | 35993 ft | 458 kts | 7° |
| 2026-05-07 19:06 | 47.26975 | -3.27842 | 35981 ft | 459 kts | 7° |
| 2026-05-07 19:06 | 47.36435 | -3.25442 | 35988 ft | 461 kts | 7° |
| 2026-05-07 19:07 | 47.42721 | -3.23833 | 35982 ft | 461 kts | 7° |
| 2026-05-07 19:07 | 47.49045 | -3.22210 | 35987 ft | 461 kts | 8° |
| 2026-05-07 19:08 | 47.55386 | -3.20570 | 36000 ft | 462 kts | 8° |
| 2026-05-07 19:08 | 47.61724 | -3.18931 | 35999 ft | 462 kts | 7° |
| 2026-05-07 19:09 | 47.68062 | -3.17309 | 35996 ft | 462 kts | 7° |
| 2026-05-07 19:09 | 47.74339 | -3.15164 | 35997 ft | 465 kts | 19° |
| 2026-05-07 19:10 | 47.80046 | -3.10753 | 36001 ft | 467 kts | 29° |
| 2026-05-07 19:10 | 47.85658 | -3.05848 | 35989 ft | 468 kts | 29° |
| 2026-05-07 19:11 | 47.91280 | -3.00944 | 35991 ft | 468 kts | 29° |
| 2026-05-07 19:11 | 47.96898 | -2.96030 | 35985 ft | 468 kts | 29° |
| 2026-05-07 19:12 | 48.02524 | -2.91098 | 35988 ft | 469 kts | 29° |
| 2026-05-07 19:12 | 48.08143 | -2.86150 | 35990 ft | 469 kts | 29° |
| 2026-05-07 19:13 | 48.13769 | -2.81176 | 35993 ft | 469 kts | 29° |
| 2026-05-07 19:13 | 48.19395 | -2.76195 | 36006 ft | 470 kts | 30° |
| 2026-05-07 19:14 | 48.25022 | -2.71197 | 35988 ft | 470 kts | 30° |
| 2026-05-07 19:14 | 48.30644 | -2.66183 | 36003 ft | 470 kts | 30° |
| 2026-05-07 19:15 | 48.36267 | -2.61161 | 36007 ft | 470 kts | 30° |
| 2026-05-07 19:15 | 48.41889 | -2.56128 | 36008 ft | 470 kts | 30° |
| 2026-05-07 19:16 | 48.47600 | -2.51468 | 36000 ft | 469 kts | 21° |
| 2026-05-07 19:16 | 48.53639 | -2.47743 | 36000 ft | 469 kts | 21° |
| 2026-05-07 19:17 | 48.59682 | -2.43996 | 36006 ft | 469 kts | 21° |
| 2026-05-07 19:17 | 48.65718 | -2.40235 | 36008 ft | 469 kts | 21° |
| 2026-05-07 19:18 | 48.71759 | -2.36457 | 36000 ft | 470 kts | 21° |
| 2026-05-07 19:18 | 48.77800 | -2.32676 | 36007 ft | 470 kts | 21° |
| 2026-05-07 19:19 | 48.83847 | -2.28882 | 36007 ft | 470 kts | 21° |
| 2026-05-07 19:19 | 48.89891 | -2.25079 | 36016 ft | 470 kts | 21° |
| 2026-05-07 19:20 | 48.95892 | -2.21289 | 36017 ft | 470 kts | 21° |
| 2026-05-07 19:20 | 49.01935 | -2.17464 | 36025 ft | 470 kts | 21° |
| 2026-05-07 19:21 | 49.07973 | -2.13634 | 36039 ft | 470 kts | 21° |
| 2026-05-07 19:21 | 49.14010 | -2.09794 | 36036 ft | 470 kts | 21° |
| 2026-05-07 19:22 | 49.20045 | -2.05942 | 36031 ft | 470 kts | 21° |
| 2026-05-07 19:22 | 49.25881 | -2.01440 | 36020 ft | 470 kts | 28° |
| 2026-05-07 19:23 | 49.31614 | -1.96573 | 36022 ft | 470 kts | 28° |
| 2026-05-07 19:23 | 49.37311 | -1.91732 | 36024 ft | 470 kts | 28° |
| 2026-05-07 19:24 | 49.43032 | -1.86860 | 36034 ft | 470 kts | 28° |
| 2026-05-07 19:24 | 49.48747 | -1.81975 | 36031 ft | 470 kts | 28° |
| 2026-05-07 19:25 | 49.54460 | -1.77081 | 36039 ft | 470 kts | 28° |
| 2026-05-07 19:25 | 49.60441 | -1.73149 | 35953 ft | 466 kts | 13° |
| 2026-05-07 19:26 | 49.63610 | -1.72229 | 35314 ft | 463 kts | 3° |
| 2026-05-07 19:26 | 49.66832 | -1.71915 | 34597 ft | 463 kts | 1° |
| 2026-05-07 19:26 | 49.70054 | -1.71653 | 33866 ft | 464 kts | 1° |
| 2026-05-07 19:26 | 49.73283 | -1.71396 | 33035 ft | 465 kts | 1° |
| 2026-05-07 19:27 | 49.76520 | -1.71136 | 32189 ft | 466 kts | 1° |
| 2026-05-07 19:27 | 49.79761 | -1.70871 | 31343 ft | 467 kts | 1° |
| 2026-05-07 19:27 | 49.83012 | -1.70606 | 30504 ft | 468 kts | 1° |
| 2026-05-07 19:27 | 49.86257 | -1.70334 | 29801 ft | 465 kts | 1° |
| 2026-05-07 19:28 | 49.89469 | -1.70060 | 29205 ft | 461 kts | 1° |
| 2026-05-07 19:28 | 49.92664 | -1.69787 | 28590 ft | 458 kts | 1° |
| 2026-05-07 19:28 | 49.95829 | -1.69510 | 28021 ft | 454 kts | 1° |
| 2026-05-07 19:28 | 49.98973 | -1.69149 | 27481 ft | 452 kts | 6° |
| 2026-05-07 19:29 | 50.02043 | -1.68173 | 26947 ft | 450 kts | 15° |
| 2026-05-07 19:29 | 50.05023 | -1.66744 | 26425 ft | 447 kts | 16° |
| 2026-05-07 19:29 | 50.07987 | -1.65301 | 25920 ft | 444 kts | 16° |
| 2026-05-07 19:29 | 50.10884 | -1.63887 | 25428 ft | 441 kts | 16° |
| 2026-05-07 19:30 | 50.13800 | -1.62466 | 24936 ft | 438 kts | 16° |
| 2026-05-07 19:30 | 50.16696 | -1.61060 | 24455 ft | 435 kts | 16° |
| 2026-05-07 19:30 | 50.19577 | -1.59667 | 23987 ft | 432 kts | 16° |
| 2026-05-07 19:30 | 50.22436 | -1.58282 | 23500 ft | 429 kts | 16° |
| 2026-05-07 19:31 | 50.25275 | -1.56902 | 22941 ft | 426 kts | 16° |
| 2026-05-07 19:31 | 50.28096 | -1.55527 | 22391 ft | 422 kts | 16° |
| 2026-05-07 19:31 | 50.30889 | -1.54165 | 21854 ft | 418 kts | 16° |
| 2026-05-07 19:31 | 50.33653 | -1.52809 | 21326 ft | 415 kts | 16° |
| 2026-05-07 19:32 | 50.36397 | -1.51459 | 20810 ft | 412 kts | 16° |
| 2026-05-07 19:32 | 50.39119 | -1.50120 | 20300 ft | 408 kts | 16° |
| 2026-05-07 19:32 | 50.41821 | -1.48790 | 19806 ft | 405 kts | 16° |
| 2026-05-07 19:32 | 50.44505 | -1.47475 | 19319 ft | 402 kts | 16° |
| 2026-05-07 19:33 | 50.47162 | -1.46171 | 18830 ft | 399 kts | 16° |
| 2026-05-07 19:33 | 50.49800 | -1.44872 | 18409 ft | 396 kts | 16° |
| 2026-05-07 19:33 | 50.52419 | -1.43576 | 18066 ft | 394 kts | 18° |
| 2026-05-07 19:33 | 50.54947 | -1.41918 | 17712 ft | 393 kts | 26° |
| 2026-05-07 19:34 | 50.57344 | -1.39872 | 17351 ft | 391 kts | 28° |
| 2026-05-07 19:34 | 50.59723 | -1.37819 | 17012 ft | 389 kts | 28° |
| 2026-05-07 19:34 | 50.62057 | -1.35805 | 16677 ft | 387 kts | 28° |
| 2026-05-07 19:34 | 50.64417 | -1.33772 | 16358 ft | 385 kts | 28° |
| 2026-05-07 19:35 | 50.66762 | -1.31755 | 16103 ft | 383 kts | 28° |
| 2026-05-07 19:35 | 50.69100 | -1.29742 | 15850 ft | 382 kts | 28° |
| 2026-05-07 19:35 | 50.71428 | -1.27734 | 15600 ft | 380 kts | 28° |
| 2026-05-07 19:35 | 50.73747 | -1.25735 | 15350 ft | 379 kts | 28° |
| 2026-05-07 19:36 | 50.76054 | -1.23740 | 15101 ft | 378 kts | 28° |
| 2026-05-07 19:36 | 50.78315 | -1.21642 | 14853 ft | 376 kts | 31° |
| 2026-05-07 19:36 | 50.80524 | -1.19413 | 14619 ft | 375 kts | 33° |
| 2026-05-07 19:36 | 50.82664 | -1.17158 | 14375 ft | 374 kts | 34° |
| 2026-05-07 19:37 | 50.84812 | -1.14862 | 14130 ft | 372 kts | 34° |
| 2026-05-07 19:37 | 50.86958 | -1.12570 | 13896 ft | 371 kts | 34° |
| 2026-05-07 19:37 | 50.89112 | -1.10295 | 13635 ft | 370 kts | 33° |
| 2026-05-07 19:37 | 50.91257 | -1.08053 | 13365 ft | 368 kts | 33° |
| 2026-05-07 19:38 | 50.93392 | -1.05837 | 13105 ft | 366 kts | 33° |
| 2026-05-07 19:38 | 50.95523 | -1.03636 | 13043 ft | 365 kts | 32° |
| 2026-05-07 19:38 | 50.96934 | -1.02179 | 13058 ft | 366 kts | 32° |
| 2026-05-07 19:38 | 50.99070 | -0.99968 | 13059 ft | 365 kts | 33° |
| 2026-05-07 19:39 | 51.01053 | -0.97474 | 12767 ft | 364 kts | 44° |
| 2026-05-07 19:39 | 51.02761 | -0.94519 | 12402 ft | 362 kts | 48° |
| 2026-05-07 19:39 | 51.04431 | -0.91535 | 12032 ft | 360 kts | 48° |
| 2026-05-07 19:39 | 51.06093 | -0.88577 | 11601 ft | 358 kts | 47° |
| 2026-05-07 19:40 | 51.07745 | -0.85640 | 11173 ft | 355 kts | 47° |
| 2026-05-07 19:40 | 51.09375 | -0.82735 | 10749 ft | 350 kts | 47° |
| 2026-05-07 19:40 | 51.10983 | -0.79862 | 10332 ft | 345 kts | 47° |
| 2026-05-07 19:40 | 51.12566 | -0.77027 | 9950 ft | 340 kts | 47° |
| 2026-05-07 19:41 | 51.14126 | -0.74234 | 9545 ft | 335 kts | 47° |
| 2026-05-07 19:41 | 51.15645 | -0.71518 | 9147 ft | 330 kts | 47° |
| 2026-05-07 19:41 | 51.17158 | -0.68812 | 8750 ft | 325 kts | 47° |
| 2026-05-07 19:41 | 51.18648 | -0.66139 | 8358 ft | 320 kts | 47° |
| 2026-05-07 19:42 | 51.20106 | -0.63514 | 8065 ft | 307 kts | 48° |
| 2026-05-07 19:42 | 51.21453 | -0.61084 | 8049 ft | 278 kts | 47° |
| 2026-05-07 19:42 | 51.22677 | -0.58875 | 8061 ft | 257 kts | 47° |
| 2026-05-07 19:42 | 51.23849 | -0.56762 | 8060 ft | 252 kts | 47° |
| 2026-05-07 19:43 | 51.25010 | -0.54669 | 8059 ft | 252 kts | 47° |
| 2026-05-07 19:43 | 51.26171 | -0.52573 | 8060 ft | 251 kts | 47° |
| 2026-05-07 19:43 | 51.27329 | -0.50481 | 8060 ft | 251 kts | 47° |
| 2026-05-07 19:43 | 51.28485 | -0.48388 | 8060 ft | 251 kts | 47° |
| 2026-05-07 19:44 | 51.29641 | -0.46298 | 8061 ft | 251 kts | 47° |
| 2026-05-07 19:44 | 51.30799 | -0.44206 | 8064 ft | 251 kts | 46° |
| 2026-05-07 19:44 | 51.32192 | -0.42588 | 8064 ft | 248 kts | 18° |
| 2026-05-07 19:44 | 51.33881 | -0.42097 | 8065 ft | 247 kts | 2° |
| 2026-05-07 19:45 | 51.35552 | -0.42538 | 8048 ft | 244 kts | 333° |
| 2026-05-07 19:45 | 51.36821 | -0.44181 | 7773 ft | 239 kts | 303° |
| 2026-05-07 19:45 | 51.37383 | -0.46640 | 7440 ft | 237 kts | 276° |
| 2026-05-07 19:45 | 51.37502 | -0.49266 | 7140 ft | 237 kts | 271° |
| 2026-05-07 19:46 | 51.37558 | -0.51903 | 7046 ft | 238 kts | 271° |
| 2026-05-07 19:46 | 51.37603 | -0.54539 | 6891 ft | 236 kts | 271° |
| 2026-05-07 19:46 | 51.37646 | -0.57173 | 6574 ft | 237 kts | 271° |
| 2026-05-07 19:46 | 51.37686 | -0.59822 | 6239 ft | 238 kts | 271° |
| 2026-05-07 19:47 | 51.37724 | -0.62466 | 5910 ft | 238 kts | 271° |
| 2026-05-07 19:47 | 51.37761 | -0.65114 | 5591 ft | 238 kts | 271° |
| 2026-05-07 19:47 | 51.37796 | -0.67763 | 5272 ft | 238 kts | 271° |
| 2026-05-07 19:47 | 51.37830 | -0.70414 | 4956 ft | 238 kts | 271° |
| 2026-05-07 19:48 | 51.37863 | -0.73073 | 4616 ft | 239 kts | 271° |
| 2026-05-07 19:48 | 51.37897 | -0.75733 | 4303 ft | 239 kts | 271° |
| 2026-05-07 19:48 | 51.37930 | -0.78375 | 4080 ft | 237 kts | 271° |
| 2026-05-07 19:48 | 51.37966 | -0.81006 | 3997 ft | 236 kts | 272° |
| 2026-05-07 19:49 | 51.38373 | -0.83529 | 4003 ft | 236 kts | 302° |
| 2026-05-07 19:49 | 51.39518 | -0.85293 | 4004 ft | 223 kts | 336° |
| 2026-05-07 19:49 | 51.40932 | -0.85823 | 4023 ft | 202 kts | 358° |
| 2026-05-07 19:49 | 51.42292 | -0.85917 | 4030 ft | 192 kts | 0° |
| 2026-05-07 19:50 | 51.43614 | -0.85862 | 4010 ft | 189 kts | 13° |
| 2026-05-07 19:50 | 51.44697 | -0.84783 | 4011 ft | 185 kts | 52° |
| 2026-05-07 19:50 | 51.45342 | -0.83008 | 4016 ft | 185 kts | 66° |
| 2026-05-07 19:50 | 51.45882 | -0.81148 | 3994 ft | 183 kts | 66° |
| 2026-05-07 19:51 | 51.46419 | -0.79298 | 3648 ft | 183 kts | 66° |
| 2026-05-07 19:51 | 51.46955 | -0.77445 | 3271 ft | 183 kts | 66° |
| 2026-05-07 19:51 | 51.47460 | -0.75587 | 3013 ft | 180 kts | 73° |
| 2026-05-07 19:51 | 51.47631 | -0.73601 | 3015 ft | 181 kts | 89° |
| 2026-05-07 19:52 | 51.47639 | -0.71626 | 2898 ft | 171 kts | 90° |
| 2026-05-07 19:52 | 51.47645 | -0.69771 | 2730 ft | 164 kts | 90° |
| 2026-05-07 19:52 | 51.47654 | -0.67965 | 2516 ft | 161 kts | 91° |
| 2026-05-07 19:52 | 51.47663 | -0.66172 | 2295 ft | 160 kts | 92° |
| 2026-05-07 19:53 | 51.47673 | -0.64380 | 2075 ft | 161 kts | 91° |
| 2026-05-07 19:53 | 51.47682 | -0.62585 | 1857 ft | 161 kts | 91° |
| 2026-05-07 19:53 | 51.47691 | -0.60799 | 1636 ft | 162 kts | 91° |
| 2026-05-07 19:53 | 51.47700 | -0.58994 | 1405 ft | 162 kts | 91° |
| 2026-05-07 19:54 | 51.47709 | -0.57222 | 1188 ft | 153 kts | 91° |
| 2026-05-07 19:54 | 51.47718 | -0.55584 | 981 ft | 142 kts | 91° |
| 2026-05-07 19:54 | 51.47725 | -0.54035 | 797 ft | 137 kts | 91° |
| 2026-05-07 19:54 | 51.47731 | -0.52524 | 617 ft | 134 kts | 92° |
| 2026-05-07 19:55 | 51.47738 | -0.51044 | 433 ft | 132 kts | 92° |
| 2026-05-07 19:55 | 51.47743 | -0.49578 | 269 ft | 130 kts | 92° |
| 2026-05-07 19:55 | 51.47751 | -0.48133 | 109 ft | 129 kts | 92° |
| 2026-05-07 19:55 | 51.47753 | -0.46725 | 89 ft | 114 kts | 91° |
| 2026-05-07 19:56 | 51.47756 | -0.45749 | 88 ft | 63 kts | 90° |
| 2026-05-07 19:56 | 51.47677 | -0.45467 | 86 ft | 8 kts | 182° |
| 2026-05-07 19:56 | 51.47632 | -0.45467 | 86 ft | 0 kts | 180° |
| 2026-05-07 19:56 | 51.47610 | -0.45468 | 86 ft | 11 kts | 180° |
| 2026-05-07 19:57 | 51.47489 | -0.45470 | 100 ft | 13 kts | 181° |
| 2026-05-07 19:57 | 51.47484 | -0.45470 | 96 ft | 0 kts | 181° |
| 2026-05-07 19:57 | 51.47481 | -0.45490 | 90 ft | 2 kts | 289° |
| 2026-05-07 19:58 | 51.47509 | -0.45475 | 73 ft | 11 kts | 44° |
| 2026-05-07 19:58 | 51.47508 | -0.45387 | 90 ft | 16 kts | 93° |
| 2026-05-07 19:58 | 51.47507 | -0.45164 | 90 ft | 21 kts | 88° |
| 2026-05-07 19:58 | 51.47509 | -0.44919 | 90 ft | 23 kts | 90° |
| 2026-05-07 19:59 | 51.47510 | -0.44672 | 90 ft | 20 kts | 89° |
| 2026-05-07 19:59 | 51.47442 | -0.44558 | 86 ft | 16 kts | 180° |
| 2026-05-07 19:59 | 51.47325 | -0.44559 | 86 ft | 18 kts | 180° |
| 2026-05-07 19:59 | 51.47193 | -0.44559 | 86 ft | 20 kts | 179° |
| 2026-05-07 20:00 | 51.47057 | -0.44557 | 86 ft | 13 kts | 183° |
| 2026-05-07 20:00 | 51.47037 | -0.44639 | 89 ft | 7 kts | 269° |
| 2026-05-07 20:00 | 51.47037 | -0.44678 | 86 ft | 0 kts | 270° |